Time;durP1;ratioP1;P1;durP2;ratioP2;P2;SDS_P1;SDS_P2;PMS_P1;PMS_P2;Temp;Humidity;BMP_temperature;BMP_pressure;BME280_temperature;BME280_humidity;BME280_pressure;Samples;Min_cycle;Max_cycle;Signal;HPM_P1;HPM_P2
2022/01/10 00:00:04;;;;;;;16.60;12.20;;;;;;;2.03;100.00;99377.73;1681611;85;21804;-82
2022/01/10 00:03:09;;;;;;;10.90;8.28;;;;;;;2.06;100.00;99381.47;1681816;85;21181;-82
2022/01/10 00:06:15;;;;;;;11.73;7.22;;;;;;;2.14;100.00;99382.95;1681840;85;21354;-82
2022/01/10 00:09:20;;;;;;;11.70;7.60;;;;;;;2.18;100.00;99384.88;1680436;85;21769;-82
2022/01/10 00:12:27;;;;;;;11.03;6.67;;;;;;;2.21;100.00;99393.54;1680602;85;22177;-77
2022/01/10 00:15:32;;;;;;;12.88;7.58;;;;;;;2.25;100.00;99389.52;1681671;85;21228;-77
2022/01/10 00:18:38;;;;;;;13.65;7.20;;;;;;;2.30;100.00;99393.14;1681787;85;21868;-77
2022/01/10 00:21:43;;;;;;;16.65;7.75;;;;;;;2.35;100.00;99389.50;1681740;85;21315;-82
2022/01/10 00:24:49;;;;;;;16.73;8.18;;;;;;;2.36;100.00;99386.33;1681884;85;21348;-82
2022/01/10 00:27:53;;;;;;;12.80;7.40;;;;;;;2.36;100.00;99383.63;1681919;85;21154;-82
2022/01/10 00:30:59;;;;;;;18.17;7.83;;;;;;;2.35;100.00;99384.60;1681766;85;21315;-82
2022/01/10 00:34:05;;;;;;;13.48;7.97;;;;;;;2.38;100.00;99385.67;1681749;85;21177;-78
2022/01/10 00:37:11;;;;;;;11.20;7.08;;;;;;;2.41;100.00;99376.79;1681817;85;21852;-82
2022/01/10 00:40:17;;;;;;;20.02;10.82;;;;;;;2.48;100.00;99383.28;1681884;85;21303;-82
2022/01/10 00:43:34;;;;;;;18.50;8.93;;;;;;;2.44;100.00;99378.33;1681880;85;21284;-78
2022/01/10 00:46:38;;;;;;;16.55;8.78;;;;;;;2.38;100.00;99380.27;1681841;85;21792;-82
2022/01/10 00:49:42;;;;;;;12.07;6.40;;;;;;;2.34;100.00;99374.81;1681708;85;21363;-78
2022/01/10 00:52:48;;;;;;;11.80;6.72;;;;;;;2.36;100.00;99376.88;1681874;85;21888;-77
2022/01/10 00:55:54;;;;;;;17.87;11.55;;;;;;;2.34;100.00;99366.22;1682411;84;21208;-77
2022/01/10 00:59:00;;;;;;;15.13;6.53;;;;;;;2.35;100.00;99364.36;1684832;85;21828;-77
2022/01/10 01:02:05;;;;;;;12.15;8.25;;;;;;;2.39;100.00;99354.98;1684772;85;21311;-81
2022/01/10 01:05:12;;;;;;;13.40;7.92;;;;;;;2.41;100.00;99352.50;1684801;85;21849;-77
2022/01/10 01:08:19;;;;;;;16.35;11.48;;;;;;;2.40;100.00;99345.87;1684869;85;21817;-78
2022/01/10 01:24:40;;;;;;;30.00;26.27;;;;;;;2.02;100.00;99338.25;1684720;85;21303;-79
2022/01/10 01:27:51;;;;;;;28.15;24.23;;;;;;;1.97;100.00;99337.34;1684761;85;21310;-77
2022/01/10 01:30:55;;;;;;;22.35;19.85;;;;;;;1.95;100.00;99346.58;1683900;85;21220;-76
2022/01/10 01:34:00;;;;;;;23.85;18.73;;;;;;;1.96;100.00;99342.88;1684673;85;21307;-79
2022/01/10 01:37:04;;;;;;;45.88;39.48;;;;;;;1.97;100.00;99340.53;1684676;85;21319;-77
2022/01/10 01:40:11;;;;;;;25.88;21.05;;;;;;;1.96;100.00;99341.53;1684828;85;21327;-77
2022/01/10 01:43:16;;;;;;;23.60;16.87;;;;;;;1.94;100.00;99337.64;1684797;85;21307;-80
2022/01/10 01:46:22;;;;;;;21.52;11.78;;;;;;;1.94;100.00;99343.04;1684670;85;21308;-77
2022/01/10 01:49:28;;;;;;;18.57;11.55;;;;;;;1.92;100.00;99347.70;1684926;85;21177;-82
2022/01/10 01:52:34;;;;;;;18.00;13.35;;;;;;;1.93;100.00;99350.78;1684821;85;21224;-79
2022/01/10 01:55:38;;;;;;;20.15;11.30;;;;;;;1.93;100.00;99352.13;1684893;85;21260;-78
2022/01/10 01:58:44;;;;;;;15.60;11.55;;;;;;;1.94;100.00;99354.33;1680361;85;21319;-77
2022/01/10 02:01:49;;;;;;;25.70;16.97;;;;;;;1.95;100.00;99354.67;1680898;85;21352;-82
2022/01/10 02:04:55;;;;;;;17.85;12.33;;;;;;;1.95;100.00;99351.48;1681894;85;21300;-78
2022/01/10 02:08:01;;;;;;;23.60;19.82;;;;;;;1.94;100.00;99360.57;1681952;85;21780;-77
2022/01/10 02:11:06;;;;;;;19.90;14.58;;;;;;;1.95;100.00;99358.72;1681378;85;21312;-77
2022/01/10 02:14:11;;;;;;;28.57;25.68;;;;;;;1.98;100.00;99357.09;1681896;85;21880;-80
2022/01/10 02:17:22;;;;;;;25.70;16.73;;;;;;;1.99;100.00;99348.00;1681711;85;21208;-82
2022/01/10 02:20:19;;;;;;;26.87;18.37;;;;;;;2.01;100.00;99347.34;1681781;85;21328;-81
2022/01/10 02:23:17;;;;;;;18.25;13.22;;;;;;;2.02;100.00;99336.43;1688385;84;21729;-78
2022/01/10 02:26:27;;;;;;;24.47;21.82;;;;;;;1.98;100.00;99331.47;1681903;85;21340;-77
2022/01/10 02:29:36;;;;;;;40.98;33.92;;;;;;;1.97;100.00;99327.05;1682017;85;21299;-77
2022/01/10 02:32:43;;;;;;;39.58;34.80;;;;;;;1.93;100.00;99327.86;1681910;85;21801;-77
2022/01/10 02:36:01;;;;;;;36.60;32.60;;;;;;;1.93;100.00;99335.07;1681870;85;21197;-77
2022/01/10 02:39:03;;;;;;;20.95;14.65;;;;;;;1.94;100.00;99338.99;1681766;85;21213;-78
2022/01/10 02:42:09;;;;;;;24.30;21.70;;;;;;;1.99;100.00;99335.86;1684340;85;21252;-82
2022/01/10 02:45:15;;;;;;;43.55;38.95;;;;;;;2.02;100.00;99337.78;1684841;83;21424;-82
2022/01/10 02:48:20;;;;;;;34.00;27.27;;;;;;;2.01;100.00;99343.30;1685258;85;21195;-82
2022/01/10 02:51:25;;;;;;;33.80;29.65;;;;;;;2.00;100.00;99342.95;1681750;85;21314;-81
2022/01/10 02:54:31;;;;;;;25.80;20.82;;;;;;;2.00;100.00;99335.70;1681781;85;21212;-78
2022/01/10 02:57:39;;;;;;;33.30;20.45;;;;;;;1.96;100.00;99338.34;1681785;85;21860;-81
2022/01/10 03:00:45;;;;;;;30.45;25.82;;;;;;;1.94;100.00;99327.36;1687101;85;21224;-77
2022/01/10 03:03:50;;;;;;;41.53;36.65;;;;;;;1.90;100.00;99324.09;1687016;85;21164;-78
2022/01/10 03:06:56;;;;;;;89.62;80.15;;;;;;;1.85;100.00;99325.53;1687067;85;21879;-77
2022/01/10 03:10:01;;;;;;;121.15;108.60;;;;;;;1.79;100.00;99314.83;1687008;85;21176;-77
2022/01/10 03:13:06;;;;;;;117.75;103.70;;;;;;;1.79;100.00;99330.51;1686985;85;21773;-79
2022/01/10 03:16:11;;;;;;;38.85;28.42;;;;;;;1.85;100.00;99337.16;1686964;85;21334;-82
2022/01/10 03:19:15;;;;;;;100.80;89.90;;;;;;;1.89;100.00;99341.28;1687063;85;21287;-82
2022/01/10 03:22:20;;;;;;;45.48;35.95;;;;;;;1.95;100.00;99348.78;1687020;85;21315;-81
2022/01/10 03:25:26;;;;;;;20.57;14.18;;;;;;;2.02;100.00;99353.08;1686836;85;21296;-77
2022/01/10 03:28:32;;;;;;;18.85;11.38;;;;;;;2.04;100.00;99356.50;1687009;85;21339;-79
2022/01/10 03:31:36;;;;;;;18.05;11.20;;;;;;;2.06;100.00;99359.89;1686938;85;21384;-77
2022/01/10 03:34:43;;;;;;;13.93;9.40;;;;;;;2.12;100.00;99356.64;1686975;85;21288;-79
2022/01/10 03:37:49;;;;;;;14.28;8.95;;;;;;;2.20;100.00;99365.33;1687089;85;21303;-79
2022/01/10 03:40:55;;;;;;;15.48;7.92;;;;;;;2.22;100.00;99361.50;1687092;85;21334;-82
2022/01/10 03:44:00;;;;;;;16.37;9.30;;;;;;;2.17;100.00;99366.49;1686998;85;21295;-82
2022/01/10 03:47:06;;;;;;;16.55;9.18;;;;;;;2.19;100.00;99382.52;1686868;85;21924;-77
2022/01/10 03:50:12;;;;;;;14.73;9.23;;;;;;;2.26;100.00;99379.61;1686909;85;21351;-82
2022/01/10 03:53:17;;;;;;;16.75;10.18;;;;;;;2.30;100.00;99384.53;1686921;85;21637;-77
2022/01/10 03:56:23;;;;;;;18.75;9.70;;;;;;;2.37;100.00;99392.07;1687046;85;21307;-77
2022/01/10 03:59:30;;;;;;;19.45;10.93;;;;;;;2.39;100.00;99392.77;1681929;85;21213;-82
2022/01/10 04:02:37;;;;;;;18.80;10.00;;;;;;;2.39;100.00;99397.66;1671002;86;21219;-77
2022/01/10 04:05:44;;;;;;;19.20;10.50;;;;;;;2.44;100.00;99398.06;1671134;86;21249;-82
2022/01/10 04:08:49;;;;;;;21.80;10.78;;;;;;;2.52;100.00;99396.84;1691986;84;21296;-77
2022/01/10 04:11:54;;;;;;;17.62;8.83;;;;;;;2.58;100.00;99392.70;1664397;86;21189;-81
2022/01/10 04:15:00;;;;;;;21.00;10.13;;;;;;;2.62;100.00;99394.61;1660025;86;21300;-78
2022/01/10 04:18:07;;;;;;;24.37;10.23;;;;;;;2.52;100.00;99389.25;1659904;86;21323;-82
2022/01/10 04:21:12;;;;;;;17.37;8.85;;;;;;;2.46;100.00;99393.89;1661514;86;21181;-77
2022/01/10 04:24:17;;;;;;;20.32;10.48;;;;;;;2.41;100.00;99382.69;1668440;86;21165;-77
2022/01/10 04:27:21;;;;;;;20.37;10.18;;;;;;;2.40;100.00;99385.02;1669272;86;21380;-78
2022/01/10 04:30:27;;;;;;;14.33;9.43;;;;;;;2.39;100.00;99388.21;1669423;86;22020;-77
2022/01/10 04:33:34;;;;;;;18.50;10.50;;;;;;;2.41;100.00;99393.48;1641503;87;21237;-81
2022/01/10 04:36:40;;;;;;;18.07;10.70;;;;;;;2.45;100.00;99389.50;1642412;86;21233;-77
2022/01/10 04:39:46;;;;;;;19.35;11.18;;;;;;;2.46;100.00;99397.44;1621083;87;21225;-81
2022/01/10 04:42:52;;;;;;;21.07;11.63;;;;;;;2.48;100.00;99396.78;1642439;87;21874;-77
2022/01/10 04:45:56;;;;;;;15.78;11.15;;;;;;;2.53;100.00;99403.09;1642557;86;21224;-77
2022/01/10 04:49:01;;;;;;;20.37;11.40;;;;;;;2.55;100.00;99411.91;1642356;87;21328;-76
2022/01/10 04:52:06;;;;;;;17.48;10.68;;;;;;;2.50;100.00;99408.80;1641152;86;21176;-77
2022/01/10 04:55:11;;;;;;;14.60;9.98;;;;;;;2.44;100.00;99407.52;1659521;86;21194;-77
2022/01/10 04:58:18;;;;;;;21.50;12.18;;;;;;;2.33;100.00;99413.59;1641099;86;21880;-79
2022/01/10 05:01:23;;;;;;;18.23;10.98;;;;;;;2.24;100.00;99415.31;1636818;86;21225;-77
2022/01/10 05:04:29;;;;;;;19.82;13.03;;;;;;;2.22;100.00;99414.13;1645266;87;21909;-79
2022/01/10 05:07:34;;;;;;;20.97;11.80;;;;;;;2.20;100.00;99412.05;1650240;86;21295;-77
2022/01/10 05:10:39;;;;;;;22.62;12.55;;;;;;;2.21;100.00;99415.59;1662078;85;21770;-77
2022/01/10 05:13:38;;;;;;;18.60;12.47;;;;;;;2.20;100.00;99426.89;1658996;86;21331;-77
2022/01/10 05:16:45;;;;;;;23.77;13.38;;;;;;;2.20;100.00;99425.54;1657005;85;21228;-77
2022/01/10 05:19:50;;;;;;;20.12;11.95;;;;;;;2.22;100.00;99424.06;1684536;85;21335;-82
2022/01/10 05:22:56;;;;;;;21.75;12.45;;;;;;;2.25;100.00;99431.34;1684650;85;21214;-77
2022/01/10 05:26:01;;;;;;;16.57;10.20;;;;;;;2.30;100.00;99433.11;1684676;84;21339;-77
2022/01/10 05:29:08;;;;;;;19.52;12.23;;;;;;;2.42;100.00;99432.97;1680359;85;21332;-80
2022/01/10 05:32:13;;;;;;;24.60;13.25;;;;;;;2.43;100.00;99442.77;1713788;82;21367;-76
2022/01/10 05:35:26;;;;;;;20.32;12.55;;;;;;;2.40;100.00;99446.62;1679295;84;21300;-77
2022/01/10 05:38:30;;;;;;;17.95;11.63;;;;;;;2.41;100.00;99448.31;1636062;86;21200;-77
2022/01/10 05:41:36;;;;;;;23.20;13.90;;;;;;;2.44;100.00;99450.70;1659129;86;21336;-77
2022/01/10 05:44:41;;;;;;;20.92;11.97;;;;;;;2.42;100.00;99459.45;1654131;85;21314;-82
2022/01/10 05:47:47;;;;;;;23.52;12.20;;;;;;;2.37;100.00;99468.98;1664628;85;21832;-79
2022/01/10 05:50:51;;;;;;;21.20;11.38;;;;;;;2.32;100.00;99480.22;1658131;85;21336;-81
2022/01/10 05:53:57;;;;;;;20.02;11.93;;;;;;;2.28;100.00;99477.45;1663486;85;21398;-77
2022/01/10 05:57:03;;;;;;;25.77;11.45;;;;;;;2.21;100.00;99487.98;1662552;84;21341;-77
2022/01/10 06:00:11;;;;;;;19.57;11.12;;;;;;;2.18;100.00;99489.59;1667958;84;21347;-77
2022/01/10 06:03:16;;;;;;;15.35;9.38;;;;;;;2.17;100.00;99483.86;1659793;84;21299;-77
2022/01/10 06:06:23;;;;;;;28.85;13.30;;;;;;;2.13;100.00;99489.68;1665843;84;21172;-83
2022/01/10 06:09:28;;;;;;;22.40;12.35;;;;;;;2.15;100.00;99493.92;1667615;84;21576;-82
2022/01/10 06:12:33;;;;;;;20.02;11.60;;;;;;;2.17;100.00;99498.70;1667313;84;21340;-76
2022/01/10 06:15:41;;;;;;;21.50;11.33;;;;;;;2.13;100.00;99498.63;1660051;84;21327;-76
2022/01/10 06:18:46;;;;;;;28.12;12.95;;;;;;;2.09;100.00;99495.84;1662921;84;21801;-77
2022/01/10 06:21:53;;;;;;;23.67;12.35;;;;;;;2.07;100.00;99496.50;1659672;84;21314;-82
2022/01/10 06:24:58;;;;;;;25.30;11.90;;;;;;;2.04;100.00;99498.13;1661628;84;22357;-77
2022/01/10 06:28:04;;;;;;;31.07;12.30;;;;;;;2.01;100.00;99505.14;1662229;84;21241;-82
2022/01/10 06:31:10;;;;;;;24.67;12.63;;;;;;;2.03;100.00;99513.95;1658760;84;21807;-77
2022/01/10 06:34:19;;;;;;;32.38;12.93;;;;;;;2.01;100.00;99514.58;1660251;84;21196;-77
2022/01/10 06:37:26;;;;;;;22.48;10.78;;;;;;;1.98;100.00;99519.78;1639707;84;21230;-77
2022/01/10 06:40:33;;;;;;;25.75;11.75;;;;;;;1.99;100.00;99513.88;1660822;84;21208;-77
2022/01/10 06:43:39;;;;;;;32.73;12.90;;;;;;;1.99;100.00;99520.13;1659062;84;21869;-77
2022/01/10 06:46:46;;;;;;;28.70;13.53;;;;;;;1.98;100.00;99524.33;1657632;84;21220;-77
2022/01/10 06:49:51;;;;;;;35.33;12.68;;;;;;;2.05;100.00;99533.54;1658084;84;21216;-77
2022/01/10 06:52:58;;;;;;;30.45;12.55;;;;;;;2.17;100.00;99541.02;1656911;84;21544;-78
2022/01/10 06:56:03;;;;;;;37.17;11.90;;;;;;;2.24;100.00;99545.69;1658975;83;21804;-77
2022/01/10 06:59:09;;;;;;;32.98;12.58;;;;;;;2.28;100.00;99537.66;1656743;84;21638;-83
2022/01/10 07:02:15;;;;;;;37.60;13.60;;;;;;;2.30;100.00;99532.12;1706521;82;21211;-83
2022/01/10 07:05:21;;;;;;;39.50;17.07;;;;;;;2.27;100.00;99531.92;1686996;83;21758;-82
2022/01/10 07:08:33;;;;;;;29.65;12.73;;;;;;;2.30;100.00;99530.77;1709838;82;21693;-82
2022/01/10 07:11:40;;;;;;;26.20;11.50;;;;;;;2.38;100.00;99541.70;1709711;82;21447;-81
2022/01/10 07:14:45;;;;;;;44.38;14.28;;;;;;;2.48;100.00;99536.30;1690190;82;21294;-81
2022/01/10 07:17:51;;;;;;;34.00;13.08;;;;;;;2.47;100.00;99539.50;1710470;82;21698;-76
2022/01/10 07:20:59;;;;;;;28.85;11.68;;;;;;;2.46;100.00;99539.66;1707651;82;21558;-77
2022/01/10 07:24:05;;;;;;;44.38;13.32;;;;;;;2.48;100.00;99543.91;1709479;82;22379;-77
2022/01/10 07:27:13;;;;;;;33.95;12.20;;;;;;;2.49;100.00;99539.34;1706003;82;21690;-77
2022/01/10 07:30:20;;;;;;;34.50;12.10;;;;;;;2.52;100.00;99536.37;1691664;82;21534;-77
2022/01/10 07:33:24;;;;;;;50.38;12.15;;;;;;;2.51;100.00;99539.58;1707904;82;21275;-76
2022/01/10 07:36:33;;;;;;;34.40;12.18;;;;;;;2.53;100.00;99543.47;1709435;82;21298;-76
2022/01/10 07:39:39;;;;;;;37.42;13.08;;;;;;;2.56;100.00;99548.59;1681808;84;21213;-82
2022/01/10 07:42:48;;;;;;;38.05;14.23;;;;;;;2.56;100.00;99543.20;1659577;84;21357;-84
2022/01/10 07:46:03;;;;;;;32.60;13.50;;;;;;;2.56;100.00;99548.59;1659781;84;21534;-78
2022/01/10 07:49:20;;;;;;;27.62;11.60;;;;;;;2.57;100.00;99550.29;1655015;84;21742;-82
2022/01/10 07:52:31;;;;;;;30.00;13.08;;;;;;;2.62;100.00;99536.36;1707177;82;21352;-84
2022/01/10 07:55:36;;;;;;;22.90;11.08;;;;;;;2.60;100.00;99532.47;1708714;82;22227;-79
2022/01/10 07:58:41;;;;;;;32.98;12.73;;;;;;;2.63;100.00;99532.16;1710548;82;21291;-85
2022/01/10 08:01:51;;;;;;;40.85;14.03;;;;;;;2.67;100.00;99542.17;1707908;82;21197;-77
2022/01/10 08:04:57;;;;;;;33.90;13.25;;;;;;;2.67;100.00;99548.42;1690459;82;21429;-82
2022/01/10 08:08:05;;;;;;;39.78;15.40;;;;;;;2.70;100.00;99548.65;1680095;83;21970;-83
2022/01/10 08:11:13;;;;;;;45.65;14.85;;;;;;;2.70;100.00;99542.75;1678755;83;21653;-82
2022/01/10 08:14:25;;;;;;;44.07;15.47;;;;;;;2.71;100.00;99538.20;1680868;83;21328;-82
2022/01/10 08:17:35;;;;;;;32.67;12.18;;;;;;;2.76;100.00;99542.66;1680895;83;21319;-85
2022/01/10 08:20:44;;;;;;;42.73;15.53;;;;;;;2.82;100.00;99533.97;1682753;83;21731;-83
2022/01/10 08:23:51;;;;;;;47.43;17.07;;;;;;;2.83;100.00;99530.80;1681110;83;21360;-78
2022/01/10 08:27:00;;;;;;;47.67;27.17;;;;;;;2.81;100.00;99532.27;1657289;83;21967;-79
2022/01/10 08:30:09;;;;;;;52.58;26.42;;;;;;;2.76;100.00;99525.11;1678336;83;21210;-78
2022/01/10 08:33:14;;;;;;;55.20;18.75;;;;;;;2.62;100.00;99519.66;1676958;83;21210;-79
2022/01/10 08:36:19;;;;;;;43.30;16.77;;;;;;;2.58;100.00;99518.73;1679092;83;21186;-83
2022/01/10 08:39:34;;;;;;;40.83;15.78;;;;;;;2.63;100.00;99524.05;1679700;83;21472;-82
2022/01/10 08:42:41;;;;;;;37.28;16.17;;;;;;;2.68;100.00;99525.85;1677443;83;22317;-79
2022/01/10 08:45:46;;;;;;;46.53;18.57;;;;;;;2.69;100.00;99530.75;1677475;82;21261;-78
2022/01/10 08:48:51;;;;;;;50.63;18.35;;;;;;;2.71;100.00;99526.89;1681620;83;21497;-78
2022/01/10 08:52:00;;;;;;;41.30;16.17;;;;;;;2.84;100.00;99520.34;1682175;83;21308;-82
2022/01/10 08:55:08;;;;;;;53.45;20.77;;;;;;;2.96;100.00;99521.84;1680544;83;21701;-83
2022/01/10 08:58:14;;;;;;;42.83;17.32;;;;;;;3.07;100.00;99516.28;1679597;83;21320;-83
2022/01/10 09:01:22;;;;;;;55.03;21.15;;;;;;;3.15;100.00;99517.72;1681258;83;21317;-82
2022/01/10 09:04:40;;;;;;;57.73;21.50;;;;;;;3.17;100.00;99520.30;1681569;83;21276;-81
2022/01/10 09:07:45;;;;;;;53.58;19.67;;;;;;;3.13;100.00;99518.89;1680028;83;21190;-82
2022/01/10 09:10:50;;;;;;;56.13;20.52;;;;;;;3.15;100.00;99515.52;1681412;83;21341;-82
2022/01/10 09:13:56;;;;;;;41.77;16.32;;;;;;;3.15;100.00;99524.48;1681364;83;21335;-82
2022/01/10 09:17:03;;;;;;;46.25;20.52;;;;;;;3.23;100.00;99523.25;1678899;83;21604;-82
2022/01/10 09:20:09;;;;;;;47.62;18.73;;;;;;;3.29;100.00;99527.20;1679251;83;21284;-77
2022/01/10 09:23:15;;;;;;;61.92;21.50;;;;;;;3.32;100.00;99518.80;1675696;83;21313;-77
2022/01/10 09:26:20;;;;;;;58.10;22.42;;;;;;;3.30;100.00;99509.50;1676357;83;21924;-78
2022/01/10 09:29:27;;;;;;;65.08;24.60;;;;;;;3.23;100.00;99503.48;1680184;83;21595;-77
2022/01/10 09:32:32;;;;;;;55.60;20.80;;;;;;;3.16;100.00;99508.64;1673593;83;21245;-79
2022/01/10 09:35:37;;;;;;;45.95;18.62;;;;;;;3.19;100.00;99507.48;1680744;83;21212;-77
2022/01/10 09:38:43;;;;;;;56.37;21.82;;;;;;;3.25;100.00;99503.70;1677640;83;21757;-82
2022/01/10 09:41:50;;;;;;;56.68;19.95;;;;;;;3.30;100.00;99500.05;1675942;83;21618;-77
2022/01/10 09:44:55;;;;;;;69.95;25.45;;;;;;;3.32;100.00;99505.29;1643854;85;21247;-78
2022/01/10 09:48:00;;;;;;;66.60;25.23;;;;;;;3.33;100.00;99499.72;1629220;86;21251;-78
2022/01/10 09:51:06;;;;;;;67.00;23.98;;;;;;;3.41;100.00;99504.89;1632901;86;21319;-83
2022/01/10 09:54:11;;;;;;;59.73;24.37;;;;;;;3.52;100.00;99501.98;1630495;86;21406;-81
2022/01/10 09:57:16;;;;;;;69.22;23.75;;;;;;;3.53;100.00;99494.23;1634703;86;21758;-81
2022/01/10 10:00:25;;;;;;;73.30;26.33;;;;;;;3.57;100.00;99495.61;1637351;86;21379;-82
2022/01/10 10:03:31;;;;;;;79.10;27.00;;;;;;;3.59;100.00;99496.33;1635171;86;21620;-82
2022/01/10 10:06:37;;;;;;;78.92;27.22;;;;;;;3.67;100.00;99496.43;1635799;86;21237;-82
2022/01/10 10:09:37;;;;;;;69.07;26.90;;;;;;;3.71;100.00;99495.60;1634597;86;21703;-82
2022/01/10 10:12:48;;;;;;;87.37;31.07;;;;;;;3.69;100.00;99491.70;1608058;86;21214;-84
2022/01/10 10:15:55;;;;;;;85.95;30.12;;;;;;;3.80;100.00;99496.04;1631122;86;21584;-84
2022/01/10 10:19:00;;;;;;;69.45;26.85;;;;;;;3.93;100.00;99491.11;1629816;86;21245;-84
2022/01/10 10:22:09;;;;;;;92.05;32.80;;;;;;;4.01;100.00;99493.91;1633501;86;21223;-84
2022/01/10 10:25:15;;;;;;;85.77;32.85;;;;;;;4.10;100.00;99484.86;1633366;86;21192;-78
2022/01/10 10:28:21;;;;;;;72.62;29.67;;;;;;;4.18;100.00;99484.06;1631104;86;21668;-77
2022/01/10 10:31:45;;;;;;;73.05;28.52;;;;;;;4.25;100.00;99487.02;1631619;86;21505;-77
2022/01/10 10:34:50;;;;;;;63.92;25.70;;;;;;;4.38;100.00;99482.06;1635961;86;21782;-77
2022/01/10 10:37:57;;;;;;;78.97;29.18;;;;;;;4.47;100.00;99493.78;1634737;86;21213;-78
2022/01/10 10:41:02;;;;;;;63.98;27.32;;;;;;;4.47;100.00;99487.02;1616311;86;21760;-78
2022/01/10 10:44:07;;;;;;;63.17;29.12;;;;;;;4.47;100.00;99491.07;1610875;86;21506;-78
2022/01/10 10:47:13;;;;;;;61.63;25.48;;;;;;;4.46;100.00;99497.50;1633268;86;21213;-78
2022/01/10 10:50:21;;;;;;;56.98;25.70;;;;;;;4.44;100.00;99491.41;1643797;86;21559;-78
2022/01/10 10:53:26;;;;;;;62.80;27.35;;;;;;;4.33;100.00;99489.30;1632278;86;21933;-78
2022/01/10 10:56:32;;;;;;;74.03;30.45;;;;;;;4.30;100.00;99489.59;1636772;86;21344;-82
2022/01/10 10:59:43;;;;;;;66.50;29.60;;;;;;;4.34;100.00;99496.41;1612347;86;21213;-83
2022/01/10 11:02:44;;;;;;;71.67;33.78;;;;;;;4.39;100.00;99498.64;1633729;86;21200;-82
2022/01/10 11:05:44;;;;;;;76.25;32.23;;;;;;;4.42;100.00;99515.91;1634564;86;21255;-83
2022/01/10 11:08:50;;;;;;;82.00;36.55;;;;;;;4.46;100.00;99513.25;1657277;84;21202;-82
2022/01/10 11:11:57;;;;;;;76.60;32.73;;;;;;;4.55;100.00;99515.02;1660280;84;21360;-82
2022/01/10 11:15:05;;;;;;;69.40;32.45;;;;;;;4.62;100.00;99519.31;1676895;84;21206;-85
2022/01/10 11:18:15;;;;;;;59.90;26.97;;;;;;;4.67;100.00;99525.11;1660102;84;21279;-83
2022/01/10 11:21:26;;;;;;;59.48;29.60;;;;;;;4.67;99.74;99522.91;1659310;84;21604;-78
2022/01/10 11:24:59;;;;;;;74.25;33.25;;;;;;;4.62;99.60;99526.09;1626645;84;21520;-78
2022/01/10 11:28:37;;;;;;;;;;;;;;;;;;;;;
2022/01/10 11:31:46;;;;;;;52.25;25.25;;;;;;;4.61;99.23;99543.32;1662986;84;21479;-78
2022/01/10 11:34:51;;;;;;;60.28;26.93;;;;;;;4.57;98.87;99544.67;1644532;84;21534;-78
2022/01/10 11:37:57;;;;;;;48.58;24.60;;;;;;;4.54;98.89;99543.62;1660744;84;21782;-78
2022/01/10 11:41:20;;;;;;;56.85;25.75;;;;;;;4.51;98.88;99549.34;1658033;84;21217;-77
2022/01/10 11:44:26;;;;;;;60.25;27.02;;;;;;;4.49;99.20;99556.27;1660750;84;21836;-81
2022/01/10 11:47:33;;;;;;;60.52;27.93;;;;;;;4.47;99.53;99555.59;1664282;84;21213;-76
2022/01/10 11:50:42;;;;;;;54.23;26.42;;;;;;;4.47;99.76;99556.06;1662635;84;21260;-79
2022/01/10 11:53:51;;;;;;;61.60;27.93;;;;;;;4.47;99.92;99558.30;1659870;84;21634;-78
2022/01/10 11:57:00;;;;;;;47.67;24.23;;;;;;;4.47;100.00;99567.78;1663110;84;21329;-78
2022/01/10 12:00:08;;;;;;;58.28;27.20;;;;;;;4.53;100.00;99566.30;1660574;84;21876;-82
2022/01/10 12:03:12;;;;;;;43.87;22.65;;;;;;;4.55;100.00;99563.77;1610041;84;21734;-80
2022/01/10 12:06:17;;;;;;;48.35;23.52;;;;;;;4.63;100.00;99572.48;1662261;84;21214;-84
2022/01/10 12:09:22;;;;;;;50.50;25.77;;;;;;;4.61;100.00;99577.18;1656341;84;21527;-80
2022/01/10 12:12:37;;;;;;;50.95;27.25;;;;;;;4.65;100.00;99575.87;1675274;84;21747;-81
2022/01/10 12:15:41;;;;;;;41.88;22.62;;;;;;;4.73;100.00;99577.80;1658490;84;21273;-80
2022/01/10 12:18:46;;;;;;;49.45;26.17;;;;;;;4.76;100.00;99575.64;1644720;85;21199;-79
2022/01/10 12:21:51;;;;;;;51.65;25.72;;;;;;;4.70;99.58;99578.95;1660178;84;21797;-80
2022/01/10 12:24:58;;;;;;;49.98;25.32;;;;;;;4.67;99.76;99582.00;1662429;84;21207;-78
2022/01/10 12:28:04;;;;;;;53.60;26.37;;;;;;;4.65;99.95;99586.70;1664596;84;22066;-78
2022/01/10 12:31:11;;;;;;;57.78;27.02;;;;;;;4.61;99.90;99574.47;1657222;84;21740;-81
2022/01/10 12:34:18;;;;;;;54.13;26.52;;;;;;;4.57;99.93;99581.23;1658950;84;21181;-80
2022/01/10 12:37:23;;;;;;;47.95;21.95;;;;;;;4.50;99.97;99587.76;1673989;84;21229;-79
2022/01/10 12:40:32;;;;;;;47.15;24.10;;;;;;;4.45;100.00;99593.30;1655767;84;21244;-77
2022/01/10 12:43:40;;;;;;;48.00;24.50;;;;;;;4.35;100.00;99595.58;1642525;84;21194;-77
2022/01/10 12:46:46;;;;;;;50.20;24.57;;;;;;;4.29;100.00;99596.20;1657685;84;21331;-82
2022/01/10 12:50:02;;;;;;;49.93;23.73;;;;;;;4.23;100.00;99599.50;1636601;84;21198;-77
2022/01/10 12:53:10;;;;;;;52.05;24.12;;;;;;;4.18;100.00;99604.52;1661052;84;21326;-80
2022/01/10 12:56:14;;;;;;;41.53;23.65;;;;;;;4.13;100.00;99606.83;1659127;84;21987;-78
2022/01/10 12:59:14;;;;;;;50.60;26.42;;;;;;;4.09;100.00;99614.43;1655525;84;21555;-78
2022/01/10 13:02:20;;;;;;;58.10;27.65;;;;;;;4.05;100.00;99616.23;1652906;84;21241;-83
2022/01/10 13:05:27;;;;;;;74.27;34.43;;;;;;;3.98;100.00;99621.38;1652860;84;21293;-81
2022/01/10 13:08:37;;;;;;;69.97;33.33;;;;;;;3.91;100.00;99632.98;1655230;84;22076;-81
2022/01/10 13:12:00;;;;;;;73.80;33.83;;;;;;;3.85;100.00;99628.49;1654451;84;21864;-83
2022/01/10 13:14:57;;;;;;;85.07;36.23;;;;;;;3.79;100.00;99637.22;1655505;84;21200;-78
2022/01/10 13:18:06;;;;;;;102.27;37.65;;;;;;;3.77;100.00;99646.50;1658920;85;21177;-78
2022/01/10 13:21:12;;;;;;;110.12;40.23;;;;;;;3.73;100.00;99655.41;1652689;85;21225;-79
2022/01/10 13:24:18;;;;;;;105.72;37.55;;;;;;;3.67;100.00;99643.84;1654942;85;21205;-77
2022/01/10 13:27:33;;;;;;;128.87;47.27;;;;;;;3.64;100.00;99649.53;1657266;85;21529;-78
2022/01/10 13:30:39;;;;;;;151.65;50.08;;;;;;;3.60;100.00;99645.41;1658018;84;21213;-82
2022/01/10 13:33:46;;;;;;;174.10;54.08;;;;;;;3.56;100.00;99646.20;1661474;84;21701;-82
2022/01/10 13:36:53;;;;;;;174.62;53.78;;;;;;;3.52;100.00;99643.94;1654933;85;21561;-77
2022/01/10 13:40:24;;;;;;;164.60;51.13;;;;;;;3.47;100.00;99652.99;1671431;84;21952;-77
2022/01/10 13:43:31;;;;;;;160.82;53.15;;;;;;;3.45;100.00;99659.91;1658443;85;21208;-81
2022/01/10 13:46:37;;;;;;;149.47;51.77;;;;;;;3.49;100.00;99664.53;1660524;84;21264;-77
2022/01/10 13:49:42;;;;;;;167.75;54.58;;;;;;;3.50;100.00;99671.13;1661662;84;21510;-82
2022/01/10 13:52:47;;;;;;;165.62;56.55;;;;;;;3.50;100.00;99672.98;1658871;84;21690;-76
2022/01/10 13:56:14;;;;;;;164.60;56.00;;;;;;;3.50;100.00;99679.75;1661689;84;21256;-82
2022/01/10 13:59:20;;;;;;;183.25;56.73;;;;;;;3.49;100.00;99687.52;1656657;85;21201;-83
2022/01/10 14:02:25;;;;;;;174.62;55.70;;;;;;;3.49;100.00;99692.92;1639129;86;21195;-77
2022/01/10 14:05:33;;;;;;;194.43;60.88;;;;;;;3.53;100.00;99702.45;1660742;84;21239;-82
2022/01/10 14:08:39;;;;;;;190.60;60.40;;;;;;;3.48;100.00;99702.01;1659689;85;21303;-82
2022/01/10 14:11:46;;;;;;;222.02;67.08;;;;;;;3.46;100.00;99702.16;1661568;85;21359;-82
2022/01/10 14:14:50;;;;;;;224.52;67.12;;;;;;;3.46;100.00;99704.02;1663859;84;21840;-78
2022/01/10 14:17:59;;;;;;;253.12;73.28;;;;;;;3.41;100.00;99707.66;1665284;84;21303;-84
2022/01/10 14:21:05;;;;;;;238.95;66.70;;;;;;;3.37;100.00;99711.64;1661190;84;21731;-83
2022/01/10 14:24:10;;;;;;;223.57;66.95;;;;;;;3.31;100.00;99715.28;1662361;84;21372;-83
2022/01/10 14:27:15;;;;;;;208.28;63.42;;;;;;;3.28;100.00;99717.41;1664762;84;21651;-83
2022/01/10 14:30:21;;;;;;;162.20;52.62;;;;;;;3.23;100.00;99720.55;1664334;85;21646;-75
2022/01/10 14:33:26;;;;;;;169.80;57.70;;;;;;;3.17;100.00;99723.84;1664707;85;21194;-76